createdAt,value
2022-12-04T00:00:26.949Z,22.18
2022-12-04T00:01:22.495Z,22.21
2022-12-04T00:02:18.060Z,22.19
2022-12-04T00:03:13.736Z,22.22
2022-12-04T00:04:09.187Z,22.21
2022-12-04T00:05:04.820Z,22.18
2022-12-04T00:06:00.276Z,22.22
2022-12-04T00:06:58.974Z,22.23
2022-12-04T00:07:51.905Z,22.28
2022-12-04T00:08:47.382Z,22.18
2022-12-04T00:09:42.947Z,22.21
2022-12-04T00:10:38.495Z,22.21
2022-12-04T00:11:34.041Z,22.18
2022-12-04T00:12:29.588Z,22.18
2022-12-04T00:13:25.134Z,22.27
2022-12-04T00:14:20.667Z,22.16
2022-12-04T00:15:25.590Z,22.25
2022-12-04T00:16:11.811Z,22.21
2022-12-04T00:17:07.298Z,22.19
2022-12-04T00:18:02.855Z,22.25
2022-12-04T00:18:47.530Z,22.21
2022-12-04T00:19:32.205Z,22.22
2022-12-04T00:20:27.780Z,22.23
2022-12-04T00:21:23.331Z,22.15
2022-12-04T00:22:18.876Z,22.25
2022-12-04T00:23:14.424Z,22.21
2022-12-04T00:24:09.980Z,22.21
2022-12-04T00:25:05.524Z,22.19
2022-12-04T00:26:01.115Z,22.16
2022-12-04T00:26:56.653Z,22.19
2022-12-04T00:27:52.204Z,22.23
2022-12-04T00:28:47.735Z,22.22
2022-12-04T00:29:43.280Z,22.18
2022-12-04T00:30:38.842Z,22.22
2022-12-04T00:31:34.474Z,22.22
2022-12-04T00:32:30.417Z,22.23
2022-12-04T00:33:25.960Z,22.19
2022-12-04T00:34:21.508Z,22.19
2022-12-04T00:35:17.041Z,22.19
2022-12-04T00:36:01.724Z,22.21
2022-12-04T00:36:57.270Z,22.19
2022-12-04T00:37:52.821Z,22.21
2022-12-04T00:38:48.365Z,22.22
2022-12-04T00:39:44.420Z,22.22
2022-12-04T00:40:39.969Z,22.18
2022-12-04T00:41:35.508Z,22.19
2022-12-04T00:42:31.052Z,22.27
2022-12-04T00:43:26.601Z,22.25
2022-12-04T00:44:22.162Z,22.21
2022-12-04T00:45:17.698Z,22.21
2022-12-04T00:46:13.320Z,22.18
2022-12-04T00:46:57.898Z,22.18
2022-12-04T00:47:53.443Z,22.22
2022-12-04T00:48:49.007Z,22.23
2022-12-04T00:49:44.564Z,22.22
2022-12-04T00:50:40.111Z,22.15
2022-12-04T00:51:35.671Z,22.18
2022-12-04T00:52:31.219Z,22.21
2022-12-04T00:53:27.366Z,22.18
2022-12-04T00:54:22.923Z,22.18
2022-12-04T00:55:18.502Z,22.18
2022-12-04T00:56:14.528Z,22.21
2022-12-04T00:56:59.196Z,22.19
2022-12-04T00:57:59.774Z,22.18
2022-12-04T00:58:50.788Z,22.23
2022-12-04T00:59:46.334Z,22.22
2022-12-04T01:00:41.912Z,22.22
2022-12-04T01:01:37.527Z,22.23
2022-12-04T01:02:33.029Z,22.21
2022-12-04T01:03:28.540Z,22.21
2022-12-04T01:04:24.041Z,22.28
2022-12-04T01:05:19.623Z,22.19
2022-12-04T01:06:15.169Z,22.21
2022-12-04T01:07:10.703Z,22.16
2022-12-04T01:08:06.372Z,22.16
2022-12-04T01:09:01.784Z,22.12
2022-12-04T01:09:57.710Z,22.18
2022-12-04T01:10:52.869Z,22.22
2022-12-04T01:11:48.423Z,22.19
2022-12-04T01:12:43.978Z,22.22
2022-12-04T01:13:28.650Z,22.18
2022-12-04T01:14:24.192Z,22.18
2022-12-04T01:15:19.731Z,22.18
2022-12-04T01:16:15.324Z,22.18
2022-12-04T01:17:10.854Z,22.18
2022-12-04T01:18:06.361Z,22.16
2022-12-04T01:19:01.908Z,22.23
2022-12-04T01:19:57.718Z,22.16
2022-12-04T01:20:52.984Z,22.22
2022-12-04T01:21:48.524Z,22.23
2022-12-04T01:22:44.075Z,22.19
2022-12-04T01:23:39.612Z,22.21
2022-12-04T01:24:24.287Z,22.21
2022-12-04T01:25:19.805Z,22.21
2022-12-04T01:26:15.379Z,22.27
2022-12-04T01:27:10.916Z,22.19
2022-12-04T01:28:06.463Z,22.19
2022-12-04T01:28:51.126Z,22.18
2022-12-04T01:29:46.673Z,22.19
2022-12-04T01:30:42.207Z,22.19
2022-12-04T01:31:37.811Z,22.15
2022-12-04T01:32:33.321Z,22.13
2022-12-04T01:33:28.843Z,22.13
2022-12-04T01:34:24.387Z,22.18
2022-12-04T01:35:20.421Z,22.18
2022-12-04T01:36:15.963Z,22.18
2022-12-04T01:37:11.556Z,22.19
2022-12-04T01:38:07.099Z,22.21
2022-12-04T01:39:02.644Z,22.16
2022-12-04T01:39:47.314Z,22.22
2022-12-04T01:40:42.864Z,22.21
2022-12-04T01:41:38.914Z,22.15
2022-12-04T01:42:34.466Z,22.25
2022-12-04T01:43:30.011Z,22.19
2022-12-04T01:44:25.547Z,22.25
2022-12-04T01:45:21.105Z,22.15
2022-12-04T01:46:16.723Z,22.25
2022-12-04T01:47:12.187Z,22.16
2022-12-04T01:48:07.741Z,22.16
2022-12-04T01:49:03.259Z,22.18
2022-12-04T01:49:58.806Z,22.15
2022-12-04T01:50:54.365Z,22.11
2022-12-04T01:51:49.900Z,22.18
2022-12-04T01:52:45.442Z,22.16
2022-12-04T01:53:40.983Z,22.16
2022-12-04T01:54:36.521Z,22.19
2022-12-04T01:55:32.547Z,22.18
2022-12-04T01:56:28.092Z,22.19
2022-12-04T01:57:23.641Z,22.16
2022-12-04T01:58:19.200Z,22.15
2022-12-04T01:59:14.781Z,22.25
2022-12-04T02:00:10.294Z,22.21
2022-12-04T02:01:08.800Z,22.19
2022-12-04T02:02:01.550Z,22.18
2022-12-04T02:02:57.077Z,22.18
2022-12-04T02:03:52.495Z,22.15
2022-12-04T02:04:48.014Z,22.16
2022-12-04T02:05:43.564Z,22.13
2022-12-04T02:06:39.117Z,22.15
2022-12-04T02:07:34.705Z,22.11
2022-12-04T02:08:30.691Z,22.16
2022-12-04T02:09:27.188Z,22.11
2022-12-04T02:10:21.809Z,22.18
2022-12-04T02:11:17.849Z,22.15
2022-12-04T02:12:13.402Z,22.15
2022-12-04T02:13:08.934Z,22.11
2022-12-04T02:14:04.493Z,22.16
2022-12-04T02:15:00.047Z,22.13
2022-12-04T02:15:55.592Z,22.21
2022-12-04T02:16:51.249Z,22.18
2022-12-04T02:17:46.671Z,22.18
2022-12-04T02:18:42.212Z,22.21
2022-12-04T02:19:38.254Z,22.15
2022-12-04T02:20:33.795Z,22.23
2022-12-04T02:21:29.333Z,22.19
2022-12-04T02:22:25.371Z,22.19
2022-12-04T02:23:20.912Z,22.13
2022-12-04T02:24:16.453Z,22.19
2022-12-04T02:25:12.486Z,22.16
2022-12-04T02:26:08.021Z,22.13
2022-12-04T02:26:52.679Z,22.16
2022-12-04T02:27:48.227Z,22.13
2022-12-04T02:28:43.783Z,22.18
2022-12-04T02:29:39.358Z,22.15
2022-12-04T02:30:34.979Z,22.18
2022-12-04T02:31:30.453Z,22.13
2022-12-04T02:32:26.012Z,22.12
2022-12-04T02:33:21.555Z,22.09
2022-12-04T02:34:17.137Z,22.18
2022-12-04T02:35:12.723Z,22.19
2022-12-04T02:36:08.226Z,22.22
2022-12-04T02:37:03.773Z,22.15
2022-12-04T02:37:59.472Z,22.16
2022-12-04T02:38:55.022Z,22.15
2022-12-04T02:39:50.582Z,22.16
2022-12-04T02:40:46.166Z,22.19
2022-12-04T02:41:42.333Z,22.13
2022-12-04T02:42:37.870Z,22.11
2022-12-04T02:43:33.406Z,22.11
2022-12-04T02:44:28.960Z,22.16
2022-12-04T02:45:13.645Z,22.16
2022-12-04T02:46:09.765Z,22.11
2022-12-04T02:47:05.204Z,22.13
2022-12-04T02:48:00.750Z,22.12
2022-12-04T02:48:56.314Z,22.18
2022-12-04T02:49:51.852Z,22.15
2022-12-04T02:50:47.421Z,22.16
2022-12-04T02:51:42.934Z,22.16
2022-12-04T02:52:38.492Z,22.19
2022-12-04T02:53:34.054Z,22.16
2022-12-04T02:54:29.599Z,22.16
2022-12-04T02:55:14.271Z,22.19
2022-12-04T02:56:09.819Z,22.19
2022-12-04T02:57:05.348Z,22.22
2022-12-04T02:58:00.878Z,22.16
2022-12-04T02:58:56.458Z,22.21
2022-12-04T02:59:51.991Z,22.19
2022-12-04T03:00:47.532Z,22.12
2022-12-04T03:01:43.194Z,22.21
2022-12-04T03:02:38.754Z,22.13
2022-12-04T03:03:34.192Z,22.11
2022-12-04T03:04:29.734Z,22.16
2022-12-04T03:05:25.270Z,22.19
2022-12-04T03:06:20.827Z,22.15
2022-12-04T03:07:16.348Z,22.16
2022-12-04T03:08:11.905Z,22.11
2022-12-04T03:08:56.557Z,22.13
2022-12-04T03:09:52.146Z,22.12
2022-12-04T03:10:48.156Z,22.16
2022-12-04T03:11:32.817Z,22.15
2022-12-04T03:12:28.367Z,22.11
2022-12-04T03:13:24.398Z,22.12
2022-12-04T03:14:19.941Z,22.19
2022-12-04T03:15:15.474Z,22.16
2022-12-04T03:16:11.035Z,22.18
2022-12-04T03:17:06.647Z,22.16
2022-12-04T03:18:02.617Z,22.25
2022-12-04T03:18:58.163Z,22.15
2022-12-04T03:19:54.066Z,22.13
2022-12-04T03:20:49.743Z,22.15
2022-12-04T03:21:45.307Z,22.19
2022-12-04T03:22:40.831Z,22.21
2022-12-04T03:23:36.374Z,22.15
2022-12-04T03:24:31.949Z,22.12
2022-12-04T03:25:27.467Z,22.16
2022-12-04T03:26:23.032Z,22.18
2022-12-04T03:27:18.608Z,22.18
2022-12-04T03:28:14.149Z,22.12
2022-12-04T03:29:09.721Z,22.13
2022-12-04T03:30:05.251Z,22.15
2022-12-04T03:31:01.369Z,22.12
2022-12-04T03:31:56.845Z,22.16
2022-12-04T03:32:52.373Z,22.12
2022-12-04T03:33:48.416Z,22.16
2022-12-04T03:34:43.951Z,22.15
2022-12-04T03:35:39.496Z,22.13
2022-12-04T03:36:35.039Z,22.18
2022-12-04T03:37:30.613Z,22.12
2022-12-04T03:38:26.611Z,22.13
2022-12-04T03:39:22.638Z,22.16
2022-12-04T03:40:18.175Z,22.15
2022-12-04T03:41:13.723Z,22.13
2022-12-04T03:42:09.293Z,22.13
2022-12-04T03:43:04.839Z,22.12
2022-12-04T03:44:00.393Z,22.18
2022-12-04T03:44:55.923Z,22.13
2022-12-04T03:45:51.536Z,22.12
2022-12-04T03:46:47.007Z,22.12
2022-12-04T03:47:42.561Z,22.13
2022-12-04T03:48:27.217Z,22.15
2022-12-04T03:49:22.764Z,22.15
2022-12-04T03:50:18.300Z,22.15
2022-12-04T03:51:14.330Z,22.16
2022-12-04T03:52:09.866Z,22.16
2022-12-04T03:53:05.435Z,22.15
2022-12-04T03:54:00.966Z,22.19
2022-12-04T03:54:56.512Z,22.18
2022-12-04T03:55:52.045Z,22.16
2022-12-04T03:56:47.577Z,22.19
2022-12-04T03:57:43.134Z,22.11
2022-12-04T03:58:39.166Z,22.15
2022-12-04T03:59:34.704Z,22.16
2022-12-04T04:00:30.241Z,22.11
2022-12-04T04:01:25.832Z,22.12
2022-12-04T04:02:21.346Z,22.16
2022-12-04T04:03:16.879Z,22.13
2022-12-04T04:04:12.428Z,22.15
2022-12-04T04:05:07.967Z,22.12
2022-12-04T04:06:03.507Z,22.13
2022-12-04T04:06:59.057Z,22.15
2022-12-04T04:07:54.644Z,22.18
2022-12-04T04:08:50.169Z,22.18
2022-12-04T04:09:45.689Z,22.18
2022-12-04T04:10:41.237Z,22.18
2022-12-04T04:11:36.797Z,22.18
2022-12-04T04:12:32.338Z,22.12
2022-12-04T04:13:27.903Z,22.16
2022-12-04T04:14:23.446Z,22.18
2022-12-04T04:15:18.984Z,22.13
2022-12-04T04:16:14.584Z,22.15
2022-12-04T04:17:10.070Z,22.13
2022-12-04T04:18:05.619Z,22.12
2022-12-04T04:19:01.166Z,22.15
2022-12-04T04:19:56.896Z,22.15
2022-12-04T04:20:41.377Z,22.15
2022-12-04T04:21:36.934Z,22.12
2022-12-04T04:22:32.479Z,22.15
2022-12-04T04:23:28.022Z,22.13
2022-12-04T04:24:23.602Z,22.13
2022-12-04T04:25:19.119Z,22.13
2022-12-04T04:26:14.677Z,22.16
2022-12-04T04:27:10.220Z,22.13
2022-12-04T04:28:05.762Z,22.16
2022-12-04T04:29:01.295Z,22.15
2022-12-04T04:29:57.035Z,22.18
2022-12-04T04:30:52.429Z,22.19
2022-12-04T04:31:48.407Z,22.19
2022-12-04T04:32:43.965Z,22.19
2022-12-04T04:33:39.529Z,22.18
2022-12-04T04:34:35.080Z,22.16
2022-12-04T04:35:30.650Z,22.13
2022-12-04T04:36:26.178Z,22.15
2022-12-04T04:37:21.726Z,22.12
2022-12-04T04:38:17.265Z,22.12
2022-12-04T04:39:12.796Z,22.15
2022-12-04T04:40:08.360Z,22.15
2022-12-04T04:41:03.891Z,22.12
2022-12-04T04:41:59.443Z,22.13
2022-12-04T04:42:54.981Z,22.12
2022-12-04T04:43:50.535Z,22.13
2022-12-04T04:44:46.086Z,22.11
2022-12-04T04:45:41.637Z,22.15
2022-12-04T04:46:26.353Z,22.18
2022-12-04T04:47:21.849Z,22.16
2022-12-04T04:48:17.400Z,22.18
2022-12-04T04:49:12.947Z,22.18
2022-12-04T04:50:15.644Z,22.18
2022-12-04T04:51:11.196Z,22.19
2022-12-04T04:52:06.732Z,22.12
2022-12-04T04:53:02.289Z,22.15
2022-12-04T04:53:57.819Z,22.09
2022-12-04T04:54:53.366Z,22.16
2022-12-04T04:55:48.942Z,22.18
2022-12-04T04:56:44.458Z,22.13
2022-12-04T04:57:39.992Z,22.09
2022-12-04T04:58:35.601Z,22.18
2022-12-04T04:59:31.130Z,22.15
2022-12-04T05:00:26.687Z,22.18
2022-12-04T05:01:22.314Z,22.09
2022-12-04T05:02:17.771Z,22.12
2022-12-04T05:03:13.377Z,22.13
2022-12-04T05:04:08.842Z,22.16
2022-12-04T05:05:04.394Z,22.12
2022-12-04T05:05:49.061Z,22.13
2022-12-04T05:06:44.604Z,22.13
2022-12-04T05:07:40.198Z,22.16
2022-12-04T05:08:35.674Z,22.16
2022-12-04T05:09:31.218Z,22.19
2022-12-04T05:10:26.759Z,22.12
2022-12-04T05:11:22.338Z,22.12
2022-12-04T05:12:17.846Z,22.16
2022-12-04T05:13:13.380Z,22.11
2022-12-04T05:14:08.923Z,22.12
2022-12-04T05:15:04.458Z,22.13
2022-12-04T05:16:00.097Z,22.13
2022-12-04T05:16:58.882Z,22.12
2022-12-04T05:17:51.064Z,22.12
2022-12-04T05:18:46.602Z,22.07
2022-12-04T05:19:42.215Z,22.12
2022-12-04T05:20:26.890Z,22.11
2022-12-04T05:21:22.475Z,22.15
2022-12-04T05:22:18.002Z,22.13
2022-12-04T05:23:13.532Z,22.12
2022-12-04T05:24:09.081Z,22.16
2022-12-04T05:25:04.619Z,22.13
2022-12-04T05:26:00.153Z,22.18
2022-12-04T05:26:55.708Z,22.18
2022-12-04T05:27:51.215Z,22.19
2022-12-04T05:28:35.894Z,22.11
2022-12-04T05:29:35.725Z,22.13
2022-12-04T05:30:16.206Z,22.23
2022-12-04T05:31:11.808Z,22.13
2022-12-04T05:32:07.276Z,22.15
2022-12-04T05:33:02.825Z,22.11
2022-12-04T05:33:58.361Z,22.12
2022-12-04T05:34:53.900Z,22.21
2022-12-04T05:35:49.454Z,22.12
2022-12-04T05:36:45.003Z,22.07
2022-12-04T05:37:40.546Z,22.03
2022-12-04T05:38:36.081Z,22.03
2022-12-04T05:39:31.620Z,22.12
2022-12-04T05:40:27.763Z,22.06
2022-12-04T05:41:23.323Z,22.18
2022-12-04T05:42:18.900Z,22.12
2022-12-04T05:43:14.419Z,22.13
2022-12-04T05:44:09.953Z,22.11
2022-12-04T05:45:05.482Z,22.18
2022-12-04T05:46:01.033Z,22.18
2022-12-04T05:46:56.657Z,22.16
2022-12-04T05:47:52.124Z,22.16
2022-12-04T05:48:47.845Z,22.15
2022-12-04T05:49:43.380Z,22.15
2022-12-04T05:50:38.917Z,22.12
2022-12-04T05:51:34.464Z,22.18
2022-12-04T05:52:30.022Z,22.21
2022-12-04T05:53:25.566Z,22.18
2022-12-04T05:54:21.097Z,22.15
2022-12-04T05:55:16.634Z,22.12
2022-12-04T05:56:12.184Z,22.15
2022-12-04T05:57:07.728Z,22.06
2022-12-04T05:58:03.287Z,22.16
2022-12-04T05:58:58.911Z,22.06
2022-12-04T05:59:54.941Z,22.12
2022-12-04T06:00:49.989Z,22.15
2022-12-04T06:01:45.583Z,22.15
2022-12-04T06:02:41.246Z,22.16
2022-12-04T06:03:36.728Z,22.12
2022-12-04T06:04:32.160Z,22.13
2022-12-04T06:05:27.707Z,22.16
2022-12-04T06:06:23.248Z,22.18
2022-12-04T06:07:18.796Z,22.11
2022-12-04T06:08:14.422Z,22.19
2022-12-04T06:09:09.879Z,22.12
2022-12-04T06:10:05.416Z,22.16
2022-12-04T06:11:00.947Z,22.13
2022-12-04T06:11:56.490Z,22.21
2022-12-04T06:12:52.033Z,22.16
2022-12-04T06:13:47.599Z,22.18
2022-12-04T06:14:43.112Z,22.13
2022-12-04T06:15:38.646Z,22.16
2022-12-04T06:16:34.293Z,22.21
2022-12-04T06:17:29.724Z,22.34
2022-12-04T06:18:25.269Z,22.27
2022-12-04T06:19:20.851Z,22.28
2022-12-04T06:20:16.490Z,22.25
2022-12-04T06:21:11.924Z,22.33
2022-12-04T06:22:07.466Z,22.28
2022-12-04T06:23:03.006Z,22.33
2022-12-04T06:23:58.603Z,22.41
2022-12-04T06:24:54.138Z,22.31
2022-12-04T06:25:49.742Z,22.44
2022-12-04T06:27:11.072Z,22.38
2022-12-04T06:27:40.860Z,22.41
2022-12-04T06:28:36.398Z,22.41
2022-12-04T06:29:31.965Z,22.43
2022-12-04T06:30:27.480Z,22.52
2022-12-04T06:31:23.138Z,22.43
2022-12-04T06:32:21.792Z,22.44
2022-12-04T06:33:14.167Z,22.44
2022-12-04T06:34:09.726Z,22.36
2022-12-04T06:35:05.312Z,22.41
2022-12-04T06:36:00.890Z,22.49
2022-12-04T06:36:56.451Z,22.44
2022-12-04T06:37:51.963Z,22.43
2022-12-04T06:38:47.501Z,22.41
2022-12-04T06:39:43.046Z,22.41
2022-12-04T06:40:38.583Z,22.41
2022-12-04T06:41:34.130Z,22.46
2022-12-04T06:42:29.664Z,22.48
2022-12-04T06:43:25.209Z,22.43
2022-12-04T06:44:20.762Z,22.49
2022-12-04T06:45:16.331Z,22.41
2022-12-04T06:46:11.967Z,22.58
2022-12-04T06:47:07.989Z,22.40
2022-12-04T06:48:03.530Z,22.53
2022-12-04T06:48:59.066Z,22.46
2022-12-04T06:49:55.055Z,22.48
2022-12-04T06:50:50.142Z,22.51
2022-12-04T06:51:45.679Z,22.46
2022-12-04T06:52:41.702Z,22.46
2022-12-04T06:53:37.245Z,22.46
2022-12-04T06:54:32.794Z,22.41
2022-12-04T06:55:28.381Z,22.41
2022-12-04T06:56:23.923Z,22.44
2022-12-04T06:57:19.460Z,22.43
2022-12-04T06:58:04.136Z,22.52
2022-12-04T06:58:59.670Z,22.40
2022-12-04T06:59:55.661Z,22.43
2022-12-04T07:00:50.958Z,22.37
2022-12-04T07:01:46.368Z,22.49
2022-12-04T07:02:41.964Z,22.44
2022-12-04T07:03:37.450Z,22.40
2022-12-04T07:04:33.002Z,22.48
2022-12-04T07:05:28.543Z,22.43
2022-12-04T07:06:24.094Z,22.41
2022-12-04T07:07:19.628Z,22.43
2022-12-04T07:08:26.672Z,22.43
2022-12-04T07:09:22.221Z,22.37
2022-12-04T07:10:17.786Z,22.44
2022-12-04T07:11:02.453Z,22.33
2022-12-04T07:11:58.210Z,22.37
2022-12-04T07:12:53.762Z,22.34
2022-12-04T07:13:49.307Z,22.41
2022-12-04T07:14:44.854Z,22.43
2022-12-04T07:15:40.397Z,22.34
2022-12-04T07:16:40.790Z,22.31
2022-12-04T07:17:31.477Z,22.41
2022-12-04T07:18:27.029Z,22.34
2022-12-04T07:19:22.582Z,22.37
2022-12-04T07:20:18.123Z,22.34
2022-12-04T07:21:13.665Z,22.33
2022-12-04T07:22:09.212Z,22.34
2022-12-04T07:23:07.352Z,22.30
2022-12-04T07:24:00.287Z,22.38
2022-12-04T07:24:55.832Z,22.40
2022-12-04T07:25:51.364Z,22.28
2022-12-04T07:26:46.915Z,22.30
2022-12-04T07:27:42.452Z,22.30
2022-12-04T07:28:37.997Z,22.33
2022-12-04T07:29:33.538Z,22.27
2022-12-04T07:30:29.067Z,22.33
2022-12-04T07:31:25.310Z,22.40
2022-12-04T07:32:20.812Z,22.31
2022-12-04T07:33:16.315Z,22.33
2022-12-04T07:34:11.859Z,22.31
2022-12-04T07:35:07.394Z,22.28
2022-12-04T07:36:02.935Z,22.25
2022-12-04T07:36:58.476Z,22.30
2022-12-04T07:37:54.022Z,22.31
2022-12-04T07:38:49.571Z,22.33
2022-12-04T07:39:45.134Z,22.28
2022-12-04T07:40:40.668Z,22.30
2022-12-04T07:41:36.204Z,22.27
2022-12-04T07:42:31.746Z,22.37
2022-12-04T07:43:27.294Z,22.30
2022-12-04T07:44:22.846Z,22.43
2022-12-04T07:45:18.402Z,22.36
2022-12-04T07:46:14.056Z,22.38
2022-12-04T07:47:09.499Z,22.38
2022-12-04T07:48:05.064Z,22.38
2022-12-04T07:49:00.594Z,22.37
2022-12-04T07:49:56.332Z,22.46
2022-12-04T07:50:51.695Z,22.44
2022-12-04T07:51:47.230Z,22.40
2022-12-04T07:52:42.770Z,22.46
2022-12-04T07:53:38.313Z,22.43
2022-12-04T07:54:33.840Z,22.27
2022-12-04T07:55:29.372Z,22.34
2022-12-04T07:56:24.919Z,22.33
2022-12-04T07:57:20.476Z,22.33
2022-12-04T07:58:16.007Z,22.36
2022-12-04T07:59:11.548Z,22.40
2022-12-04T08:00:07.085Z,22.41
2022-12-04T08:01:02.717Z,22.43
2022-12-04T08:01:58.271Z,22.41
2022-12-04T08:02:53.731Z,22.43
2022-12-04T08:03:49.340Z,22.43
2022-12-04T08:04:44.902Z,22.40
2022-12-04T08:05:40.364Z,22.48
2022-12-04T08:06:35.901Z,22.58
2022-12-04T08:07:31.520Z,22.53
2022-12-04T08:08:26.978Z,22.55
2022-12-04T08:09:22.521Z,22.59
2022-12-04T08:10:18.056Z,22.68
2022-12-04T08:11:13.591Z,22.70
2022-12-04T08:12:09.622Z,22.66
2022-12-04T08:13:05.179Z,22.73
2022-12-04T08:14:00.717Z,22.74
2022-12-04T08:14:56.270Z,22.77
2022-12-04T08:15:51.867Z,22.68
2022-12-04T08:16:52.464Z,22.74
2022-12-04T08:17:43.468Z,22.88
2022-12-04T08:18:39.018Z,22.83
2022-12-04T08:19:34.578Z,22.70
2022-12-04T08:20:30.087Z,22.80
2022-12-04T08:21:25.633Z,22.88
2022-12-04T08:22:25.043Z,22.80
2022-12-04T08:23:16.717Z,22.83
2022-12-04T08:24:12.264Z,22.95
2022-12-04T08:24:56.942Z,22.93
2022-12-04T08:25:52.490Z,22.92
2022-12-04T08:26:48.023Z,22.95
2022-12-04T08:27:47.366Z,22.92
2022-12-04T08:28:39.157Z,22.96
2022-12-04T08:29:34.696Z,22.98
2022-12-04T08:30:30.236Z,23.03
2022-12-04T08:31:25.860Z,22.99
2022-12-04T08:32:21.330Z,22.92
2022-12-04T08:33:16.870Z,22.99
2022-12-04T08:34:12.442Z,22.91
2022-12-04T08:35:07.996Z,22.95
2022-12-04T08:36:03.527Z,23.04
2022-12-04T08:36:59.084Z,22.91
2022-12-04T08:37:54.617Z,22.89
2022-12-04T08:38:50.662Z,22.91
2022-12-04T08:39:46.195Z,22.96
2022-12-04T08:40:41.768Z,22.93
2022-12-04T08:41:37.291Z,22.86
2022-12-04T08:42:32.833Z,22.80
2022-12-04T08:43:28.388Z,22.85
2022-12-04T08:44:23.918Z,22.80
2022-12-04T08:45:19.457Z,22.86
2022-12-04T08:46:15.527Z,22.81
2022-12-04T08:47:11.019Z,22.86
2022-12-04T08:48:07.645Z,22.81
2022-12-04T08:49:03.190Z,22.83
2022-12-04T08:49:58.732Z,22.78
2022-12-04T08:50:54.299Z,22.81
2022-12-04T08:51:38.932Z,22.86
2022-12-04T08:52:34.478Z,22.74
2022-12-04T08:53:30.514Z,22.73
2022-12-04T08:54:15.181Z,22.85
2022-12-04T08:55:10.732Z,22.77
2022-12-04T08:56:06.783Z,22.80
2022-12-04T08:57:02.327Z,22.73
2022-12-04T08:57:57.860Z,22.73
2022-12-04T08:58:53.397Z,22.73
2022-12-04T08:59:48.944Z,22.67
2022-12-04T09:00:44.976Z,22.76
2022-12-04T09:01:40.637Z,22.74
2022-12-04T09:02:36.062Z,22.74
2022-12-04T09:03:31.591Z,22.71
2022-12-04T09:04:27.269Z,22.67
2022-12-04T09:05:22.710Z,22.73
2022-12-04T09:06:18.269Z,22.68
2022-12-04T09:07:02.792Z,22.68
2022-12-04T09:07:58.393Z,22.70
2022-12-04T09:08:53.810Z,22.64
2022-12-04T09:09:49.563Z,22.58
2022-12-04T09:10:45.013Z,22.52
2022-12-04T09:11:40.537Z,22.52
2022-12-04T09:12:36.682Z,22.49
2022-12-04T09:13:32.712Z,22.59
2022-12-04T09:14:28.250Z,22.43
2022-12-04T09:15:23.798Z,22.46
2022-12-04T09:16:19.434Z,22.43
2022-12-04T09:17:14.880Z,22.37
2022-12-04T09:18:10.447Z,22.41
2022-12-04T09:19:05.992Z,22.44
2022-12-04T09:20:01.830Z,22.34
2022-12-04T09:20:57.112Z,22.36
2022-12-04T09:21:53.172Z,22.28
2022-12-04T09:23:03.417Z,22.36
2022-12-04T09:23:44.218Z,22.43
2022-12-04T09:24:39.764Z,22.37
2022-12-04T09:25:35.297Z,22.41
2022-12-04T09:26:30.830Z,22.34
2022-12-04T09:27:26.380Z,22.38
2022-12-04T09:28:21.915Z,22.37
2022-12-04T09:29:17.489Z,22.31
2022-12-04T09:30:13.002Z,22.37
2022-12-04T09:31:08.670Z,22.30
2022-12-04T09:32:04.098Z,22.44
2022-12-04T09:32:59.643Z,22.37
2022-12-04T09:33:55.269Z,22.41
2022-12-04T09:34:52.779Z,22.38
2022-12-04T09:35:46.344Z,22.37
2022-12-04T09:36:41.889Z,22.37
2022-12-04T09:37:37.456Z,22.33
2022-12-04T09:38:33.485Z,22.34
2022-12-04T09:39:29.028Z,22.31
2022-12-04T09:40:24.563Z,22.33
2022-12-04T09:41:20.106Z,22.38
2022-12-04T09:42:15.652Z,22.41
2022-12-04T09:43:11.193Z,22.37
2022-12-04T09:44:06.741Z,22.44
2022-12-04T09:45:02.773Z,22.48
2022-12-04T09:45:58.365Z,22.41
2022-12-04T09:46:53.931Z,22.38
2022-12-04T09:47:49.398Z,22.49
2022-12-04T09:48:44.941Z,22.40
2022-12-04T09:49:40.496Z,22.43
2022-12-04T09:50:36.038Z,22.43
2022-12-04T09:51:31.596Z,22.53
2022-12-04T09:52:27.132Z,22.46
2022-12-04T09:53:22.701Z,22.48
2022-12-04T09:54:18.230Z,22.51
2022-12-04T09:55:13.777Z,22.56
2022-12-04T09:55:58.445Z,22.56
2022-12-04T09:56:53.989Z,22.56
2022-12-04T09:57:49.519Z,22.56
2022-12-04T09:58:34.187Z,22.49
2022-12-04T09:59:29.728Z,22.55
2022-12-04T10:00:25.265Z,22.55
2022-12-04T10:01:20.805Z,22.51
2022-12-04T10:02:16.415Z,22.46
2022-12-04T10:03:12.002Z,22.51
2022-12-04T10:04:07.548Z,22.53
2022-12-04T10:05:02.994Z,22.46
2022-12-04T10:05:58.532Z,22.41
2022-12-04T10:06:54.085Z,22.46
2022-12-04T10:07:49.680Z,22.43
2022-12-04T10:08:45.192Z,22.53
2022-12-04T10:09:40.724Z,22.55
2022-12-04T10:10:36.266Z,22.38
2022-12-04T10:11:32.931Z,22.49
2022-12-04T10:12:27.342Z,22.46
2022-12-04T10:13:22.874Z,22.51
2022-12-04T10:14:18.899Z,22.49
2022-12-04T10:15:14.449Z,22.52
2022-12-04T10:16:10.049Z,22.44
2022-12-04T10:17:05.527Z,22.52
2022-12-04T10:18:01.064Z,22.53
2022-12-04T10:18:56.603Z,22.41
2022-12-04T10:19:52.148Z,22.41
2022-12-04T10:20:47.725Z,22.38
2022-12-04T10:21:43.262Z,22.44
2022-12-04T10:22:38.801Z,22.51
2022-12-04T10:23:23.997Z,22.49
2022-12-04T10:24:19.625Z,22.41
2022-12-04T10:25:15.135Z,22.43
2022-12-04T10:26:21.756Z,22.41
2022-12-04T10:27:17.798Z,22.44
2022-12-04T10:28:13.335Z,22.43
2022-12-04T10:29:08.884Z,22.40
2022-12-04T10:30:04.418Z,22.40
2022-12-04T10:31:00.022Z,22.40
2022-12-04T10:31:55.511Z,22.49
2022-12-04T10:32:51.057Z,22.41
2022-12-04T10:33:46.597Z,22.53
2022-12-04T10:34:45.644Z,22.55
2022-12-04T10:35:38.194Z,22.53
2022-12-04T10:36:33.740Z,22.58
2022-12-04T10:37:29.294Z,22.59
2022-12-04T10:38:24.835Z,22.55
2022-12-04T10:39:20.369Z,22.56
2022-12-04T10:40:15.933Z,22.56
2022-12-04T10:41:00.586Z,22.55
2022-12-04T10:41:56.132Z,22.56
2022-12-04T10:42:52.766Z,22.55
2022-12-04T10:43:48.308Z,22.67
2022-12-04T10:44:44.339Z,22.53
2022-12-04T10:45:39.876Z,22.64
2022-12-04T10:46:36.011Z,22.73
2022-12-04T10:47:31.473Z,22.71
2022-12-04T10:48:27.007Z,22.73
2022-12-04T10:49:22.544Z,22.77
2022-12-04T10:50:18.087Z,22.76
2022-12-04T10:51:13.621Z,22.74
2022-12-04T10:52:09.164Z,22.73
2022-12-04T10:53:08.210Z,22.68
2022-12-04T10:54:00.735Z,22.77
2022-12-04T10:54:56.272Z,22.77
2022-12-04T10:55:51.839Z,22.85
2022-12-04T10:56:36.487Z,22.86
2022-12-04T10:57:32.038Z,22.86
2022-12-04T10:58:27.582Z,22.85
2022-12-04T10:59:23.129Z,22.85
2022-12-04T11:00:18.663Z,22.89
2022-12-04T11:01:14.200Z,22.86
2022-12-04T11:02:09.796Z,22.78
2022-12-04T11:03:05.428Z,22.71
2022-12-04T11:04:00.839Z,22.76
2022-12-04T11:04:56.367Z,22.73
2022-12-04T11:05:51.901Z,22.73
2022-12-04T11:06:47.444Z,22.85
2022-12-04T11:07:43.052Z,22.83
2022-12-04T11:08:27.748Z,22.78
2022-12-04T11:09:23.221Z,22.78
2022-12-04T11:10:18.909Z,22.83
2022-12-04T11:11:14.318Z,22.83
2022-12-04T11:12:09.845Z,22.77
2022-12-04T11:13:05.376Z,22.74
2022-12-04T11:14:00.921Z,22.76
2022-12-04T11:14:56.455Z,22.81
2022-12-04T11:15:52.081Z,22.73
2022-12-04T11:16:47.541Z,22.74
2022-12-04T11:17:43.082Z,22.76
2022-12-04T11:18:38.626Z,22.71
2022-12-04T11:19:34.177Z,22.71
2022-12-04T11:20:29.726Z,22.85
2022-12-04T11:21:25.261Z,22.70
2022-12-04T11:22:20.797Z,22.70
2022-12-04T11:23:05.480Z,22.67
2022-12-04T11:24:01.065Z,22.66
2022-12-04T11:24:56.609Z,22.62
2022-12-04T11:25:52.669Z,22.66
2022-12-04T11:26:48.228Z,22.67
2022-12-04T11:27:33.848Z,22.67
2022-12-04T11:28:44.810Z,22.70
2022-12-04T11:29:24.964Z,22.77
2022-12-04T11:30:09.640Z,22.67
2022-12-04T11:31:05.234Z,22.68
2022-12-04T11:32:07.192Z,22.71
2022-12-04T11:32:56.246Z,22.67
2022-12-04T11:33:51.783Z,22.64
2022-12-04T11:34:47.334Z,22.70
2022-12-04T11:35:42.878Z,22.67
2022-12-04T11:36:38.428Z,22.70
2022-12-04T11:37:33.965Z,22.68
2022-12-04T11:38:29.500Z,22.59
2022-12-04T11:39:25.043Z,22.58
2022-12-04T11:40:20.591Z,22.56
2022-12-04T11:41:16.162Z,22.51
2022-12-04T11:42:11.719Z,22.58
2022-12-04T11:43:07.239Z,22.55
2022-12-04T11:44:02.803Z,22.48
2022-12-04T11:44:58.341Z,22.53
2022-12-04T11:45:53.884Z,22.43
2022-12-04T11:46:49.480Z,22.48
2022-12-04T11:47:45.000Z,22.49
2022-12-04T11:48:40.533Z,22.51
2022-12-04T11:49:40.837Z,22.52